createdAt,value
2018-12-05T00:02:28.397Z,100722.00
2018-12-05T00:04:56.626Z,100713.00
2018-12-05T00:07:24.804Z,100706.00
2018-12-05T00:09:52.988Z,100709.00
2018-12-05T00:12:21.149Z,100710.00
2018-12-05T00:14:49.316Z,100707.00
2018-12-05T00:17:17.522Z,100698.00
2018-12-05T00:19:45.690Z,100701.00
2018-12-05T00:22:13.875Z,100698.00
2018-12-05T00:24:42.111Z,100694.00
2018-12-05T00:27:10.293Z,100620.00
2018-12-05T00:29:38.484Z,100683.00
2018-12-05T00:32:06.681Z,100675.00
2018-12-05T00:34:34.850Z,100670.00
2018-12-05T00:37:03.042Z,100672.00
2018-12-05T00:39:31.207Z,100666.00
2018-12-05T00:41:59.366Z,100659.00
2018-12-05T00:44:27.556Z,100656.00
2018-12-05T00:46:55.732Z,100655.00
2018-12-05T00:49:23.914Z,100658.00
2018-12-05T00:51:52.440Z,100643.00
2018-12-05T00:54:20.620Z,100648.00
2018-12-05T00:56:48.972Z,100638.00
2018-12-05T00:59:17.168Z,100630.00
2018-12-05T01:01:45.348Z,100624.00
2018-12-05T01:04:13.517Z,100615.00
2018-12-05T01:06:41.720Z,100609.00
2018-12-05T01:09:11.945Z,100602.00
2018-12-05T01:11:40.757Z,100595.00
2018-12-05T01:14:08.960Z,100589.00
2018-12-05T01:16:37.136Z,100588.00
2018-12-05T01:19:05.556Z,100591.00
2018-12-05T01:21:33.732Z,100591.00
2018-12-05T01:24:01.882Z,100587.00
2018-12-05T01:26:30.129Z,100583.00
2018-12-05T01:28:58.376Z,100583.00
2018-12-05T01:31:26.532Z,100577.00
2018-12-05T01:33:55.859Z,100567.00
2018-12-05T01:36:25.518Z,100574.00
2018-12-05T01:38:53.725Z,100568.00
2018-12-05T01:41:22.023Z,100575.00
2018-12-05T01:43:50.189Z,100561.00
2018-12-05T01:46:18.495Z,100556.00
2018-12-05T01:48:47.001Z,100566.00
2018-12-05T01:51:15.179Z,100564.00
2018-12-05T01:53:43.364Z,100555.00
2018-12-05T01:56:11.602Z,100543.00
2018-12-05T01:58:39.798Z,100538.00
2018-12-05T02:01:07.956Z,100536.00
2018-12-05T02:03:36.158Z,100542.00
2018-12-05T02:06:04.626Z,100533.00
2018-12-05T02:08:32.792Z,100528.00
2018-12-05T02:11:01.585Z,100521.00
2018-12-05T02:13:29.741Z,100521.00
2018-12-05T02:15:57.951Z,100513.00
2018-12-05T02:18:26.125Z,100501.00
2018-12-05T02:20:55.568Z,100497.00
2018-12-05T02:23:23.772Z,100502.00
2018-12-05T02:25:51.975Z,100494.00
2018-12-05T02:28:20.160Z,100497.00
2018-12-05T02:30:48.325Z,100493.00
2018-12-05T02:33:16.556Z,100491.00
2018-12-05T02:35:44.732Z,100495.00
2018-12-05T02:38:12.920Z,100481.00
2018-12-05T02:40:41.431Z,100478.00
2018-12-05T02:43:09.630Z,100466.00
2018-12-05T02:45:37.882Z,100458.00
2018-12-05T02:48:06.080Z,100462.00
2018-12-05T02:50:34.230Z,100461.00
2018-12-05T02:53:04.096Z,100457.00
2018-12-05T02:55:32.337Z,100456.00
2018-12-05T02:58:00.630Z,100448.00
2018-12-05T03:00:28.803Z,100458.00
2018-12-05T03:02:57.025Z,100446.00
2018-12-05T03:05:25.184Z,100444.00
2018-12-05T03:07:53.342Z,100437.00
2018-12-05T03:10:21.514Z,100429.00
2018-12-05T03:12:49.702Z,100430.00
2018-12-05T03:15:17.914Z,100419.00
2018-12-05T03:17:46.102Z,100410.00
2018-12-05T03:20:14.269Z,100412.00
2018-12-05T03:22:42.570Z,100411.00
2018-12-05T03:25:10.893Z,100395.00
2018-12-05T03:27:39.075Z,100393.00
2018-12-05T03:30:07.499Z,100386.00
2018-12-05T03:32:35.792Z,100367.00
2018-12-05T03:35:04.777Z,100368.00
2018-12-05T03:37:32.963Z,100358.00
2018-12-05T03:40:02.047Z,100358.00
2018-12-05T03:42:30.212Z,100353.00
2018-12-05T03:44:58.364Z,100335.00
2018-12-05T03:47:26.569Z,100335.00
2018-12-05T03:50:00.267Z,100319.00
2018-12-05T03:52:28.457Z,100324.00
2018-12-05T03:54:56.622Z,100326.00
2018-12-05T03:57:24.793Z,100315.00
2018-12-05T03:59:53.005Z,100311.00
2018-12-05T04:02:21.188Z,100304.00
2018-12-05T04:04:49.342Z,100299.00
2018-12-05T04:07:17.746Z,100301.00
2018-12-05T04:09:45.916Z,100293.00
2018-12-05T04:12:14.103Z,100289.00
2018-12-05T04:14:42.349Z,100277.00
2018-12-05T04:17:10.566Z,100275.00
2018-12-05T04:19:38.709Z,100280.00
2018-12-05T04:22:07.023Z,100288.00
2018-12-05T04:24:35.194Z,100286.00
2018-12-05T04:27:03.369Z,100285.00
2018-12-05T04:29:31.546Z,100282.00
2018-12-05T04:31:59.719Z,100277.00
2018-12-05T04:34:27.931Z,100266.00
2018-12-05T04:36:56.102Z,100269.00
2018-12-05T04:39:24.313Z,100262.00
2018-12-05T04:41:52.895Z,100259.00
2018-12-05T04:44:21.074Z,100264.00
2018-12-05T04:46:49.251Z,100250.00
2018-12-05T04:49:17.466Z,100247.00
2018-12-05T04:51:45.684Z,100245.00
2018-12-05T04:54:13.874Z,100246.00
2018-12-05T04:56:42.060Z,100235.00
2018-12-05T04:59:10.671Z,100228.00
2018-12-05T05:01:38.848Z,100224.00
2018-12-05T05:04:07.343Z,100227.00
2018-12-05T05:06:41.673Z,100221.00
2018-12-05T05:09:06.894Z,100219.00
2018-12-05T05:11:35.101Z,100137.00
2018-12-05T05:14:03.394Z,100216.00
2018-12-05T05:16:31.570Z,100208.00
2018-12-05T05:18:59.769Z,100209.00
2018-12-05T05:48:03.948Z,100161.00
2018-12-05T05:50:33.982Z,100147.00
2018-12-05T05:53:02.144Z,100155.00
2018-12-05T05:55:30.318Z,100144.00
2018-12-05T05:57:58.514Z,100156.00
2018-12-05T06:00:26.684Z,100152.00
2018-12-05T06:02:54.872Z,100148.00
2018-12-05T06:05:23.033Z,100144.00
2018-12-05T06:07:51.190Z,100143.00
2018-12-05T06:10:19.392Z,100135.00
2018-12-05T06:12:47.588Z,100131.00
2018-12-05T06:15:15.733Z,100128.00
2018-12-05T06:17:44.268Z,100120.00
2018-12-05T06:20:12.457Z,100113.00
2018-12-05T06:22:40.624Z,100104.00
2018-12-05T06:25:08.932Z,100101.00
2018-12-05T06:27:38.036Z,100099.00
2018-12-05T06:30:07.632Z,100086.00
2018-12-05T06:32:35.833Z,100096.00
2018-12-05T06:35:04.539Z,100081.00
2018-12-05T06:37:32.696Z,100089.00
2018-12-05T06:40:00.884Z,100084.00
2018-12-05T06:42:29.030Z,100092.00
2018-12-05T06:44:57.196Z,100068.00
2018-12-05T06:47:27.887Z,100064.00
2018-12-05T06:49:56.541Z,100074.00
2018-12-05T06:52:24.694Z,100060.00
2018-12-05T06:54:52.873Z,100064.00
2018-12-05T06:57:21.036Z,100064.00
2018-12-05T06:59:49.232Z,100064.00
2018-12-05T07:02:17.420Z,100050.00
2018-12-05T07:04:45.589Z,100042.00
2018-12-05T07:07:13.752Z,100040.00
2018-12-05T07:09:42.739Z,100043.00
2018-12-05T07:12:10.924Z,100035.00
2018-12-05T07:14:39.096Z,100053.00
2018-12-05T07:17:07.287Z,100046.00
2018-12-05T07:19:35.464Z,100044.00
2018-12-05T07:22:03.667Z,100027.00
2018-12-05T07:24:31.865Z,100034.00
2018-12-05T07:27:00.807Z,100028.00
2018-12-05T07:29:28.992Z,100021.00
2018-12-05T07:31:57.191Z,100029.00
2018-12-05T07:34:25.382Z,100029.00
2018-12-05T07:36:53.562Z,100023.00
2018-12-05T07:39:21.770Z,100024.00
2018-12-05T07:41:50.398Z,100017.00
2018-12-05T07:44:18.599Z,100010.00
2018-12-05T07:46:46.800Z,100006.00
2018-12-05T07:49:14.968Z,99997.00
2018-12-05T07:51:43.141Z,100011.00
2018-12-05T07:54:11.317Z,99994.00
2018-12-05T07:56:39.462Z,100002.00
2018-12-05T07:59:08.513Z,100001.00
2018-12-05T08:01:36.682Z,99992.00
2018-12-05T08:04:04.950Z,99991.00
2018-12-05T08:06:33.110Z,99987.00
2018-12-05T08:09:01.283Z,99982.00
2018-12-05T08:11:29.460Z,99978.00
2018-12-05T08:13:57.761Z,99970.00
2018-12-05T08:16:25.929Z,99976.00
2018-12-05T08:18:55.079Z,99959.00
2018-12-05T08:21:23.240Z,99973.00
2018-12-05T08:23:51.413Z,99955.00
2018-12-05T08:26:20.347Z,99960.00
2018-12-05T08:28:48.538Z,99966.00
2018-12-05T08:31:16.700Z,99957.00
2018-12-05T08:33:44.911Z,99959.00
2018-12-05T08:36:13.135Z,99956.00
2018-12-05T08:38:41.303Z,99963.00
2018-12-05T08:41:09.482Z,99956.00
2018-12-05T08:43:37.670Z,99952.00
2018-12-05T08:46:05.851Z,99957.00
2018-12-05T08:48:34.032Z,99955.00
2018-12-05T08:51:02.411Z,99950.00
2018-12-05T08:53:30.571Z,99945.00
2018-12-05T08:55:58.882Z,99940.00
2018-12-05T08:58:27.032Z,99938.00
2018-12-05T09:00:55.295Z,99938.00
2018-12-05T09:03:23.481Z,99935.00
2018-12-05T09:05:53.490Z,99930.00
2018-12-05T09:08:21.687Z,99934.00
2018-12-05T09:10:52.019Z,99917.00
2018-12-05T09:13:20.192Z,99916.00
2018-12-05T09:15:48.438Z,99915.00
2018-12-05T09:18:16.624Z,99914.00
2018-12-05T09:20:45.800Z,99905.00
2018-12-05T09:23:14.002Z,99905.00
2018-12-05T09:25:43.741Z,99901.00
2018-12-05T09:28:11.900Z,99905.00
2018-12-05T09:30:40.809Z,99905.00
2018-12-05T09:33:08.993Z,99902.00
2018-12-05T09:35:37.149Z,99904.00
2018-12-05T09:38:05.642Z,99888.00
2018-12-05T09:40:33.856Z,99887.00
2018-12-05T09:43:02.772Z,99876.00
2018-12-05T09:45:31.592Z,99879.00
2018-12-05T09:47:59.784Z,99888.00
2018-12-05T09:50:29.327Z,99884.00
2018-12-05T09:52:57.501Z,99870.00
2018-12-05T09:55:25.686Z,99865.00
2018-12-05T09:57:53.962Z,99872.00
2018-12-05T10:00:22.110Z,99871.00
2018-12-05T10:02:50.296Z,99865.00
2018-12-05T10:05:19.596Z,99868.00
2018-12-05T10:07:47.785Z,99853.00
2018-12-05T10:10:15.955Z,99853.00
2018-12-05T10:12:44.106Z,99857.00
2018-12-05T10:15:12.291Z,99851.00
2018-12-05T10:17:40.517Z,99847.00
2018-12-05T10:20:08.703Z,99841.00
2018-12-05T10:22:36.880Z,99834.00
2018-12-05T10:25:05.889Z,99835.00
2018-12-05T10:27:34.033Z,99827.00
2018-12-05T10:30:02.374Z,99817.00
2018-12-05T10:32:30.542Z,99813.00
2018-12-05T10:34:58.703Z,99804.00
2018-12-05T10:37:27.078Z,99802.00
2018-12-05T10:39:55.258Z,99792.00
2018-12-05T10:42:23.405Z,99788.00
2018-12-05T10:44:51.793Z,99791.00
2018-12-05T10:47:19.981Z,99778.00
2018-12-05T10:49:48.227Z,99777.00
2018-12-05T10:52:16.529Z,99777.00
2018-12-05T10:54:44.706Z,99770.00
2018-12-05T10:57:12.867Z,99771.00
2018-12-05T10:59:41.255Z,99768.00
2018-12-05T11:02:15.091Z,99766.00
2018-12-05T11:04:49.454Z,99766.00
2018-12-05T11:07:24.442Z,99760.00
2018-12-05T11:09:58.017Z,99770.00
2018-12-05T11:12:31.704Z,99757.00
2018-12-05T11:15:05.540Z,99756.00
2018-12-05T11:17:39.168Z,99752.00
2018-12-05T11:20:12.796Z,99746.00
2018-12-05T11:22:46.490Z,99740.00
2018-12-05T11:25:16.660Z,99732.00
2018-12-05T11:27:44.831Z,99723.00
2018-12-05T11:30:13.208Z,99717.00
2018-12-05T11:32:41.368Z,99710.00
2018-12-05T11:35:09.866Z,99719.00
2018-12-05T11:37:38.058Z,99707.00
2018-12-05T11:40:06.377Z,99707.00
2018-12-05T11:42:34.543Z,99694.00
2018-12-05T11:45:04.159Z,99695.00
2018-12-05T11:47:32.305Z,99681.00
2018-12-05T11:50:01.418Z,99686.00
2018-12-05T11:52:29.806Z,99678.00
2018-12-05T11:54:58.159Z,99655.00
2018-12-05T11:57:26.479Z,99651.00
2018-12-05T11:59:55.003Z,99654.00
2018-12-05T12:02:23.162Z,99642.00
2018-12-05T12:04:51.347Z,99641.00
2018-12-05T12:07:20.132Z,99631.00
2018-12-05T12:09:48.476Z,99632.00
2018-12-05T12:12:22.003Z,99628.00
2018-12-05T12:14:50.279Z,99624.00
2018-12-05T12:17:18.448Z,99614.00
2018-12-05T12:19:46.635Z,99615.00
2018-12-05T12:22:15.356Z,99609.00
2018-12-05T12:24:43.518Z,99598.00
2018-12-05T12:27:11.725Z,99588.00
2018-12-05T12:29:39.905Z,99591.00
2018-12-05T12:32:08.110Z,99587.00
2018-12-05T12:34:37.549Z,99596.00
2018-12-05T12:37:05.716Z,99577.00
2018-12-05T12:39:34.671Z,99572.00
2018-12-05T12:42:02.907Z,99570.00
2018-12-05T12:44:31.089Z,99560.00
2018-12-05T12:47:00.082Z,99551.00
2018-12-05T12:49:29.081Z,99551.00
2018-12-05T12:51:57.243Z,99539.00
2018-12-05T12:54:25.393Z,99537.00
2018-12-05T12:56:53.570Z,99531.00
2018-12-05T12:59:21.719Z,99524.00
2018-12-05T13:01:51.014Z,99526.00
2018-12-05T13:04:19.203Z,99527.00
2018-12-05T13:06:48.101Z,99524.00
2018-12-05T13:09:16.253Z,99518.00
2018-12-05T13:11:44.427Z,99509.00
2018-12-05T13:14:12.590Z,99500.00
2018-12-05T13:16:40.742Z,99506.00
2018-12-05T13:19:09.065Z,99493.00
2018-12-05T13:21:37.209Z,99505.00
2018-12-05T13:24:05.616Z,99499.00
2018-12-05T13:26:35.774Z,99489.00
2018-12-05T13:29:03.940Z,99487.00
2018-12-05T13:31:32.104Z,99485.00
2018-12-05T13:34:00.299Z,99483.00
2018-12-05T13:36:28.695Z,99478.00
2018-12-05T13:38:56.915Z,99476.00
2018-12-05T13:41:25.137Z,99470.00
2018-12-05T13:43:53.309Z,99466.00
2018-12-05T13:46:21.483Z,99452.00
2018-12-05T13:48:49.689Z,99452.00
2018-12-05T13:51:21.137Z,99437.00
2018-12-05T13:53:51.037Z,99447.00
2018-12-05T13:56:20.305Z,99444.00
2018-12-05T13:58:48.524Z,99442.00
2018-12-05T14:01:16.711Z,99430.00
2018-12-05T14:03:44.881Z,99431.00
2018-12-05T14:06:13.099Z,99434.00
2018-12-05T14:08:43.014Z,99428.00
2018-12-05T14:11:11.194Z,99429.00
2018-12-05T14:13:39.369Z,99418.00
2018-12-05T14:16:07.550Z,99427.00
2018-12-05T14:18:35.704Z,99408.00
2018-12-05T14:21:03.974Z,99411.00
2018-12-05T14:23:32.152Z,99403.00
2018-12-05T14:26:00.341Z,99402.00
2018-12-05T14:28:28.550Z,99399.00
2018-12-05T14:30:56.731Z,99388.00
2018-12-05T14:33:24.894Z,99385.00
2018-12-05T14:35:53.068Z,99385.00
2018-12-05T14:38:21.256Z,99375.00
2018-12-05T14:40:50.084Z,99371.00
2018-12-05T14:43:18.298Z,99366.00
2018-12-05T14:45:46.504Z,99360.00
2018-12-05T14:48:14.691Z,99358.00
2018-12-05T14:50:42.845Z,99342.00
2018-12-05T14:53:11.051Z,99350.00
2018-12-05T14:55:39.233Z,99346.00
2018-12-05T14:58:07.405Z,99343.00
2018-12-05T15:00:35.578Z,99338.00
2018-12-05T15:03:04.416Z,99328.00
2018-12-05T15:05:32.741Z,99328.00
2018-12-05T15:08:00.925Z,99322.00
2018-12-05T15:10:29.090Z,99312.00
2018-12-05T15:12:57.247Z,99304.00
2018-12-05T15:15:25.412Z,99282.00
2018-12-05T15:17:53.566Z,99272.00
2018-12-05T15:20:21.788Z,99264.00
2018-12-05T15:22:50.916Z,99285.00
2018-12-05T15:25:19.960Z,99295.00
2018-12-05T15:27:49.136Z,99307.00
2018-12-05T15:30:17.424Z,99308.00
2018-12-05T15:32:45.977Z,99326.00
2018-12-05T15:35:14.187Z,99321.00
2018-12-05T15:37:42.371Z,99327.00
2018-12-05T15:40:10.740Z,99327.00
2018-12-05T15:42:38.889Z,99333.00
2018-12-05T15:45:09.501Z,99332.00
2018-12-05T15:47:37.643Z,99326.00
2018-12-05T15:50:06.741Z,99330.00
2018-12-05T15:52:34.925Z,99330.00
2018-12-05T15:55:03.192Z,99318.00
2018-12-05T15:57:31.364Z,99317.00
2018-12-05T15:59:59.537Z,99311.00
2018-12-05T16:02:27.719Z,99311.00
2018-12-05T16:04:55.916Z,99299.00
2018-12-05T16:07:24.090Z,99287.00
2018-12-05T16:09:52.355Z,99289.00
2018-12-05T16:12:20.515Z,99300.00
2018-12-05T16:14:48.702Z,99282.00
2018-12-05T16:17:16.871Z,99310.00
2018-12-05T16:19:45.933Z,99308.00
2018-12-05T16:22:14.120Z,99305.00
2018-12-05T16:24:42.289Z,99305.00
2018-12-05T16:27:11.132Z,99293.00
2018-12-05T16:29:39.312Z,99293.00
2018-12-05T16:32:07.475Z,99289.00
2018-12-05T16:34:35.636Z,99299.00
2018-12-05T16:37:03.832Z,99308.00
2018-12-05T16:39:32.015Z,99313.00
2018-12-05T16:42:00.292Z,99309.00
2018-12-05T16:44:28.497Z,99329.00
2018-12-05T16:46:56.670Z,99325.00
2018-12-05T17:07:23.644Z,99332.00
2018-12-05T17:09:51.816Z,99338.00
2018-12-05T17:12:20.009Z,99330.00
2018-12-05T17:14:48.186Z,99333.00
2018-12-05T17:17:16.333Z,99341.00
2018-12-05T17:19:46.235Z,99344.00
2018-12-05T17:22:14.639Z,99350.00
2018-12-05T17:24:43.051Z,99347.00
2018-12-05T17:27:11.235Z,99347.00
2018-12-05T17:29:39.442Z,99350.00
2018-12-05T17:32:07.623Z,99339.00
2018-12-05T17:34:35.805Z,99340.00
2018-12-05T17:37:04.144Z,99344.00
2018-12-05T17:39:32.343Z,99349.00
2018-12-05T17:42:00.509Z,99348.00
2018-12-05T17:44:28.661Z,99341.00
2018-12-05T17:46:56.828Z,99334.00
2018-12-05T17:49:24.996Z,99340.00
2018-12-05T17:51:54.959Z,99343.00
2018-12-05T17:54:23.698Z,99337.00
2018-12-05T17:56:52.303Z,99342.00
2018-12-05T17:59:20.753Z,99345.00
2018-12-05T18:01:50.622Z,99341.00
2018-12-05T18:04:19.593Z,99349.00
2018-12-05T18:06:47.760Z,99349.00
2018-12-05T18:09:15.933Z,99351.00
2018-12-05T18:11:44.109Z,99346.00
2018-12-05T18:14:12.669Z,99351.00
2018-12-05T18:16:40.870Z,99354.00
2018-12-05T18:19:09.094Z,99354.00
2018-12-05T18:21:37.274Z,99363.00
2018-12-05T18:24:05.451Z,99351.00
2018-12-05T18:26:33.613Z,99353.00
2018-12-05T18:29:03.017Z,99350.00
2018-12-05T18:31:31.256Z,99350.00
2018-12-05T18:33:59.449Z,99360.00
2018-12-05T18:36:27.598Z,99353.00
2018-12-05T18:38:56.682Z,99354.00
2018-12-05T18:41:24.858Z,99363.00
2018-12-05T18:43:53.035Z,99365.00
2018-12-05T18:46:21.235Z,99371.00
2018-12-05T18:48:49.895Z,99364.00
2018-12-05T18:51:18.090Z,99375.00
2018-12-05T18:53:46.324Z,99376.00
2018-12-05T18:56:14.499Z,99380.00
2018-12-05T18:58:42.697Z,99373.00
2018-12-05T19:01:10.893Z,99378.00
2018-12-05T19:03:40.203Z,99337.00
2018-12-05T19:06:08.384Z,99376.00
2018-12-05T19:08:36.593Z,99391.00
2018-12-05T19:11:05.357Z,99396.00
2018-12-05T19:13:35.568Z,99392.00
2018-12-05T19:16:03.733Z,99399.00
2018-12-05T19:18:32.060Z,99379.00
2018-12-05T19:21:00.436Z,99393.00
2018-12-05T19:23:28.625Z,99407.00
2018-12-05T19:25:56.803Z,99400.00
2018-12-05T19:28:24.973Z,99399.00
2018-12-05T19:30:53.252Z,99390.00
2018-12-05T19:33:21.579Z,99404.00
2018-12-05T19:35:49.788Z,99396.00
2018-12-05T19:38:17.962Z,99400.00
2018-12-05T19:40:46.240Z,99410.00
2018-12-05T19:43:14.417Z,99404.00
2018-12-05T19:45:42.588Z,99417.00
2018-12-05T19:48:10.784Z,99407.00
2018-12-05T19:50:38.955Z,99408.00
2018-12-05T19:53:07.524Z,99411.00
2018-12-05T19:55:35.899Z,99411.00
2018-12-05T19:58:04.070Z,99402.00
2018-12-05T20:00:32.248Z,99408.00
2018-12-05T20:03:00.438Z,99405.00
2018-12-05T20:05:29.300Z,99397.00
2018-12-05T20:07:57.473Z,99398.00
2018-12-05T20:10:25.674Z,99399.00
2018-12-05T20:12:53.862Z,99411.00
2018-12-05T20:15:22.037Z,99414.00
2018-12-05T20:17:50.530Z,99427.00
2018-12-05T20:20:18.724Z,99426.00
2018-12-05T20:22:47.034Z,99381.00
2018-12-05T20:25:15.193Z,99436.00
2018-12-05T20:27:43.600Z,99441.00
2018-12-05T20:30:11.800Z,99446.00
2018-12-05T20:32:39.971Z,99452.00
2018-12-05T20:35:09.179Z,99470.00
2018-12-05T20:37:37.363Z,99454.00
2018-12-05T20:40:05.871Z,99470.00
2018-12-05T20:42:34.058Z,99477.00
2018-12-05T20:45:03.111Z,99491.00
2018-12-05T20:47:31.275Z,99487.00
2018-12-05T20:49:59.530Z,99490.00
2018-12-05T20:52:27.679Z,99484.00
2018-12-05T20:54:55.930Z,99485.00
2018-12-05T20:57:24.117Z,99476.00
2018-12-05T20:59:52.269Z,99469.00
2018-12-05T21:02:20.444Z,99469.00
2018-12-05T21:04:48.640Z,99475.00
2018-12-05T21:07:16.815Z,99483.00
2018-12-05T21:09:44.999Z,99487.00
2018-12-05T21:12:13.297Z,99498.00
2018-12-05T21:14:42.191Z,99503.00
2018-12-05T21:17:10.376Z,99493.00
2018-12-05T21:19:38.564Z,99488.00
2018-12-05T21:22:06.727Z,99483.00
2018-12-05T21:24:34.888Z,99481.00
2018-12-05T21:27:03.073Z,99475.00
2018-12-05T21:29:31.291Z,99473.00
2018-12-05T21:31:59.560Z,99468.00
2018-12-05T21:34:28.704Z,99465.00
2018-12-05T21:36:56.857Z,99468.00
2018-12-05T21:39:25.035Z,99466.00
2018-12-05T21:41:54.235Z,99475.00
2018-12-05T21:44:22.410Z,99473.00
2018-12-05T21:46:50.605Z,99468.00
2018-12-05T21:49:19.554Z,99478.00
2018-12-05T21:51:48.777Z,99480.00
2018-12-05T21:54:16.934Z,99481.00
2018-12-05T21:56:45.146Z,99481.00
2018-12-05T21:59:14.213Z,99491.00
2018-12-05T22:01:42.435Z,99505.00
2018-12-05T22:04:10.635Z,99521.00
2018-12-05T22:06:39.294Z,99523.00
2018-12-05T22:09:09.395Z,99517.00
2018-12-05T22:11:37.564Z,99532.00
2018-12-05T22:14:05.847Z,99544.00
2018-12-05T22:16:34.029Z,99542.00
2018-12-05T22:19:02.220Z,99544.00
2018-12-05T22:21:30.369Z,99527.00
2018-12-05T22:23:58.518Z,99541.00
2018-12-05T22:26:26.737Z,99550.00
2018-12-05T22:28:54.906Z,99547.00
2018-12-05T22:31:23.408Z,99554.00
2018-12-05T22:33:54.491Z,99556.00
2018-12-05T22:36:22.771Z,99564.00
2018-12-05T22:57:14.068Z,99591.00
2018-12-05T22:59:42.304Z,99578.00
2018-12-05T23:02:10.615Z,99575.00
2018-12-05T23:04:38.900Z,99586.00
2018-12-05T23:07:08.377Z,99577.00
2018-12-05T23:09:36.879Z,99588.00
2018-12-05T23:12:05.183Z,99592.00
2018-12-05T23:14:33.356Z,99588.00
2018-12-05T23:17:01.512Z,99594.00
2018-12-05T23:19:29.716Z,99591.00
2018-12-05T23:21:57.860Z,99587.00
2018-12-05T23:24:26.020Z,99585.00
2018-12-05T23:26:54.973Z,99586.00
2018-12-05T23:29:23.308Z,99596.00
2018-12-05T23:31:51.452Z,99592.00
2018-12-05T23:34:20.316Z,99597.00
2018-12-05T23:36:48.465Z,99595.00
2018-12-05T23:39:16.794Z,99597.00
2018-12-05T23:41:45.794Z,99594.00
2018-12-05T23:44:14.000Z,99591.00
2018-12-05T23:46:42.157Z,99601.00
2018-12-05T23:49:11.040Z,99602.00
2018-12-05T23:51:39.245Z,99611.00
2018-12-05T23:54:07.401Z,99604.00
2018-12-05T23:56:35.939Z,99613.00
2018-12-05T23:59:04.208Z,99620.00
